Trego, Montana
Current Conditions -  °F | °C
As of 4:55 AM on Friday 28 Nov 2014 (Local Time) from KGPI Reporting Station
Overcast Overcast  
Wind Chill: 38°   Ceiling: 4700
Heat Index: 43°   Visibility: 10mi
Dew Point: 37°   Wind: 9mph
Humidity: 80%   Direction: 160°SSE
Pressure: 29.58"   Gusts: NA
Location:  48.71°N, 114.87°W
Report Text: KGPI 281155Z AUTO 16008KT 10SM BKN047 OVC055 06/03 A2958 RMK AO2 SLP026 70001 T00610028 10083 20050 58020
Loading
Personal Weather Stations






























Interactive Weather Map New forecast layout! Learn more

10-Day Weather Forecast

Advertisements
Track Severe Weather on mobile